sensor_id;sensor_type;location;lat;lon;timestamp;P1;durP1;ratioP1;P2;durP2;ratioP2
6739;SDS011;3407;49.882;10.920;2023-04-15T00:00:46;7.23;;;5.90;;
6739;SDS011;3407;49.882;10.920;2023-04-15T00:05:42;6.80;;;5.60;;
6739;SDS011;3407;49.882;10.920;2023-04-15T00:10:38;7.57;;;5.50;;
6739;SDS011;3407;49.882;10.920;2023-04-15T00:15:33;6.20;;;5.17;;
6739;SDS011;3407;49.882;10.920;2023-04-15T00:20:29;5.40;;;4.90;;
6739;SDS011;3407;49.882;10.920;2023-04-15T00:25:25;5.87;;;5.17;;
6739;SDS011;3407;49.882;10.920;2023-04-15T00:30:20;5.73;;;5.13;;
6739;SDS011;3407;49.882;10.920;2023-04-15T00:35:17;6.93;;;6.10;;
6739;SDS011;3407;49.882;10.920;2023-04-15T00:40:13;6.00;;;4.90;;
6739;SDS011;3407;49.882;10.920;2023-04-15T00:45:12;5.90;;;5.30;;
6739;SDS011;3407;49.882;10.920;2023-04-15T00:50:08;6.57;;;5.40;;
6739;SDS011;3407;49.882;10.920;2023-04-15T00:55:05;5.57;;;5.10;;
6739;SDS011;3407;49.882;10.920;2023-04-15T01:00:01;9.93;;;6.83;;
6739;SDS011;3407;49.882;10.920;2023-04-15T01:04:58;8.70;;;6.80;;
6739;SDS011;3407;49.882;10.920;2023-04-15T01:09:54;7.63;;;5.90;;
6739;SDS011;3407;49.882;10.920;2023-04-15T01:14:50;5.53;;;4.83;;
6739;SDS011;3407;49.882;10.920;2023-04-15T01:19:45;9.40;;;4.50;;
6739;SDS011;3407;49.882;10.920;2023-04-15T01:24:42;6.77;;;4.63;;
6739;SDS011;3407;49.882;10.920;2023-04-15T01:29:49;5.17;;;4.67;;
6739;SDS011;3407;49.882;10.920;2023-04-15T01:34:44;5.27;;;4.77;;
6739;SDS011;3407;49.882;10.920;2023-04-15T01:39:40;5.53;;;4.83;;
6739;SDS011;3407;49.882;10.920;2023-04-15T01:44:36;6.10;;;5.60;;
6739;SDS011;3407;49.882;10.920;2023-04-15T01:49:31;5.93;;;5.33;;
6739;SDS011;3407;49.882;10.920;2023-04-15T01:54:27;5.60;;;5.10;;
6739;SDS011;3407;49.882;10.920;2023-04-15T01:59:22;7.87;;;5.33;;
6739;SDS011;3407;49.882;10.920;2023-04-15T02:04:18;7.70;;;5.80;;
6739;SDS011;3407;49.882;10.920;2023-04-15T02:09:13;6.23;;;5.57;;
6739;SDS011;3407;49.882;10.920;2023-04-15T02:14:09;8.23;;;5.67;;
6739;SDS011;3407;49.882;10.920;2023-04-15T02:19:04;6.83;;;5.53;;
6739;SDS011;3407;49.882;10.920;2023-04-15T02:24:00;6.17;;;5.43;;
6739;SDS011;3407;49.882;10.920;2023-04-15T02:28:56;5.20;;;4.80;;
6739;SDS011;3407;49.882;10.920;2023-04-15T02:33:51;7.37;;;6.30;;
6739;SDS011;3407;49.882;10.920;2023-04-15T02:38:47;9.80;;;6.77;;
6739;SDS011;3407;49.882;10.920;2023-04-15T02:43:42;7.83;;;7.03;;
6739;SDS011;3407;49.882;10.920;2023-04-15T02:48:38;7.30;;;6.20;;
6739;SDS011;3407;49.882;10.920;2023-04-15T02:53:33;10.53;;;6.73;;
6739;SDS011;3407;49.882;10.920;2023-04-15T02:58:30;8.27;;;6.63;;
6739;SDS011;3407;49.882;10.920;2023-04-15T03:03:25;8.00;;;6.20;;
6739;SDS011;3407;49.882;10.920;2023-04-15T03:08:22;7.63;;;6.60;;
6739;SDS011;3407;49.882;10.920;2023-04-15T03:13:18;7.57;;;6.60;;
6739;SDS011;3407;49.882;10.920;2023-04-15T03:18:14;6.43;;;5.83;;
6739;SDS011;3407;49.882;10.920;2023-04-15T03:23:10;6.60;;;5.70;;
6739;SDS011;3407;49.882;10.920;2023-04-15T03:28:06;6.70;;;6.00;;
6739;SDS011;3407;49.882;10.920;2023-04-15T03:33:01;6.10;;;5.50;;
6739;SDS011;3407;49.882;10.920;2023-04-15T03:37:57;5.37;;;4.97;;
6739;SDS011;3407;49.882;10.920;2023-04-15T03:42:52;6.47;;;4.87;;
6739;SDS011;3407;49.882;10.920;2023-04-15T03:47:48;5.00;;;4.50;;
6739;SDS011;3407;49.882;10.920;2023-04-15T03:52:44;7.33;;;5.60;;
6739;SDS011;3407;49.882;10.920;2023-04-15T03:57:40;8.13;;;6.47;;
6739;SDS011;3407;49.882;10.920;2023-04-15T04:02:35;9.87;;;6.97;;
6739;SDS011;3407;49.882;10.920;2023-04-15T04:07:31;7.13;;;6.43;;
6739;SDS011;3407;49.882;10.920;2023-04-15T04:12:26;7.03;;;6.30;;
6739;SDS011;3407;49.882;10.920;2023-04-15T04:17:22;8.50;;;7.13;;
6739;SDS011;3407;49.882;10.920;2023-04-15T04:22:21;5.63;;;5.13;;
6739;SDS011;3407;49.882;10.920;2023-04-15T04:27:18;7.50;;;6.30;;
6739;SDS011;3407;49.882;10.920;2023-04-15T04:32:13;7.93;;;6.60;;
6739;SDS011;3407;49.882;10.920;2023-04-15T04:37:09;8.30;;;7.13;;
6739;SDS011;3407;49.882;10.920;2023-04-15T04:42:05;12.67;;;6.93;;
6739;SDS011;3407;49.882;10.920;2023-04-15T04:47:00;7.17;;;6.43;;
6739;SDS011;3407;49.882;10.920;2023-04-15T04:51:56;10.73;;;6.67;;
6739;SDS011;3407;49.882;10.920;2023-04-15T04:56:52;7.77;;;6.10;;
6739;SDS011;3407;49.882;10.920;2023-04-15T05:01:47;6.73;;;5.77;;
6739;SDS011;3407;49.882;10.920;2023-04-15T05:06:43;7.10;;;6.40;;
6739;SDS011;3407;49.882;10.920;2023-04-15T05:11:38;10.33;;;7.57;;
6739;SDS011;3407;49.882;10.920;2023-04-15T05:16:34;8.70;;;6.43;;
6739;SDS011;3407;49.882;10.920;2023-04-15T05:21:29;6.63;;;4.90;;
6739;SDS011;3407;49.882;10.920;2023-04-15T05:26:25;5.50;;;4.90;;
6739;SDS011;3407;49.882;10.920;2023-04-15T05:31:21;7.47;;;4.87;;
6739;SDS011;3407;49.882;10.920;2023-04-15T05:36:16;5.33;;;4.70;;
6739;SDS011;3407;49.882;10.920;2023-04-15T05:41:12;5.67;;;4.90;;
6739;SDS011;3407;49.882;10.920;2023-04-15T05:46:09;5.43;;;4.67;;
6739;SDS011;3407;49.882;10.920;2023-04-15T05:51:05;6.80;;;5.53;;
6739;SDS011;3407;49.882;10.920;2023-04-15T05:56:00;5.53;;;5.03;;
6739;SDS011;3407;49.882;10.920;2023-04-15T06:00:56;7.87;;;5.90;;
6739;SDS011;3407;49.882;10.920;2023-04-15T06:05:52;9.13;;;6.23;;
6739;SDS011;3407;49.882;10.920;2023-04-15T06:10:48;6.70;;;5.90;;
6739;SDS011;3407;49.882;10.920;2023-04-15T06:15:43;7.50;;;5.87;;
6739;SDS011;3407;49.882;10.920;2023-04-15T06:20:39;7.43;;;5.70;;
6739;SDS011;3407;49.882;10.920;2023-04-15T06:25:35;6.53;;;5.67;;
6739;SDS011;3407;49.882;10.920;2023-04-15T06:30:31;6.30;;;5.47;;
6739;SDS011;3407;49.882;10.920;2023-04-15T06:35:26;9.63;;;6.83;;
6739;SDS011;3407;49.882;10.920;2023-04-15T06:40:22;12.43;;;9.30;;
6739;SDS011;3407;49.882;10.920;2023-04-15T06:45:18;11.60;;;7.93;;
6739;SDS011;3407;49.882;10.920;2023-04-15T06:50:13;7.60;;;6.80;;
6739;SDS011;3407;49.882;10.920;2023-04-15T06:55:09;8.33;;;7.17;;
6739;SDS011;3407;49.882;10.920;2023-04-15T07:00:05;10.03;;;7.73;;
6739;SDS011;3407;49.882;10.920;2023-04-15T07:05:01;7.97;;;7.17;;
6739;SDS011;3407;49.882;10.920;2023-04-15T07:09:56;8.47;;;6.50;;
6739;SDS011;3407;49.882;10.920;2023-04-15T07:14:52;7.70;;;6.90;;
6739;SDS011;3407;49.882;10.920;2023-04-15T07:19:48;9.40;;;7.20;;
6739;SDS011;3407;49.882;10.920;2023-04-15T07:24:44;7.97;;;7.03;;
6739;SDS011;3407;49.882;10.920;2023-04-15T07:29:40;8.40;;;7.47;;
6739;SDS011;3407;49.882;10.920;2023-04-15T07:34:36;10.97;;;7.80;;
6739;SDS011;3407;49.882;10.920;2023-04-15T07:39:32;8.93;;;8.03;;
6739;SDS011;3407;49.882;10.920;2023-04-15T07:44:27;8.40;;;7.00;;
6739;SDS011;3407;49.882;10.920;2023-04-15T07:49:23;8.80;;;7.30;;
6739;SDS011;3407;49.882;10.920;2023-04-15T07:54:18;10.63;;;7.97;;
6739;SDS011;3407;49.882;10.920;2023-04-15T07:59:14;8.87;;;7.80;;
6739;SDS011;3407;49.882;10.920;2023-04-15T08:04:11;10.23;;;7.27;;
6739;SDS011;3407;49.882;10.920;2023-04-15T08:09:07;13.20;;;8.20;;
6739;SDS011;3407;49.882;10.920;2023-04-15T08:14:03;10.23;;;7.27;;
6739;SDS011;3407;49.882;10.920;2023-04-15T08:18:58;9.70;;;7.17;;
6739;SDS011;3407;49.882;10.920;2023-04-15T08:23:54;10.50;;;8.20;;
6739;SDS011;3407;49.882;10.920;2023-04-15T08:28:50;10.23;;;7.97;;
6739;SDS011;3407;49.882;10.920;2023-04-15T08:33:46;8.33;;;7.40;;
6739;SDS011;3407;49.882;10.920;2023-04-15T08:38:43;9.67;;;7.20;;
6739;SDS011;3407;49.882;10.920;2023-04-15T08:43:42;11.73;;;7.53;;
6739;SDS011;3407;49.882;10.920;2023-04-15T08:48:46;8.47;;;7.27;;
6739;SDS011;3407;49.882;10.920;2023-04-15T08:53:43;13.33;;;7.17;;
6739;SDS011;3407;49.882;10.920;2023-04-15T08:58:44;10.93;;;7.13;;
6739;SDS011;3407;49.882;10.920;2023-04-15T09:03:40;8.67;;;7.00;;
6739;SDS011;3407;49.882;10.920;2023-04-15T09:08:36;11.77;;;8.83;;
6739;SDS011;3407;49.882;10.920;2023-04-15T09:13:33;10.53;;;8.30;;
6739;SDS011;3407;49.882;10.920;2023-04-15T09:18:32;10.60;;;8.33;;
6739;SDS011;3407;49.882;10.920;2023-04-15T09:23:28;10.77;;;7.33;;
6739;SDS011;3407;49.882;10.920;2023-04-15T09:28:25;9.90;;;7.67;;
6739;SDS011;3407;49.882;10.920;2023-04-15T09:33:20;10.27;;;8.43;;
6739;SDS011;3407;49.882;10.920;2023-04-15T09:38:16;8.10;;;6.80;;
6739;SDS011;3407;49.882;10.920;2023-04-15T09:43:11;8.30;;;7.10;;
6739;SDS011;3407;49.882;10.920;2023-04-15T09:48:14;8.53;;;7.17;;
6739;SDS011;3407;49.882;10.920;2023-04-15T09:53:14;8.03;;;7.23;;
6739;SDS011;3407;49.882;10.920;2023-04-15T09:58:18;9.37;;;7.37;;
6739;SDS011;3407;49.882;10.920;2023-04-15T10:03:22;7.17;;;6.47;;
6739;SDS011;3407;49.882;10.920;2023-04-15T10:08:22;6.37;;;5.50;;
6739;SDS011;3407;49.882;10.920;2023-04-15T10:13:21;7.67;;;6.23;;
6739;SDS011;3407;49.882;10.920;2023-04-15T10:18:18;9.30;;;7.17;;
6739;SDS011;3407;49.882;10.920;2023-04-15T10:23:15;8.03;;;6.40;;
6739;SDS011;3407;49.882;10.920;2023-04-15T10:28:14;6.70;;;6.00;;
6739;SDS011;3407;49.882;10.920;2023-04-15T10:33:11;7.83;;;6.30;;
6739;SDS011;3407;49.882;10.920;2023-04-15T10:43:35;6.40;;;5.80;;
6739;SDS011;3407;49.882;10.920;2023-04-15T10:48:31;6.67;;;5.40;;
6739;SDS011;3407;49.882;10.920;2023-04-15T10:53:27;5.87;;;4.87;;
6739;SDS011;3407;49.882;10.920;2023-04-15T10:58:23;6.20;;;4.87;;
6739;SDS011;3407;49.882;10.920;2023-04-15T11:03:38;5.40;;;4.90;;
6739;SDS011;3407;49.882;10.920;2023-04-15T11:08:52;4.10;;;3.70;;
6739;SDS011;3407;49.882;10.920;2023-04-15T11:13:53;4.83;;;3.50;;
6739;SDS011;3407;49.882;10.920;2023-04-15T11:18:54;3.10;;;2.80;;
6739;SDS011;3407;49.882;10.920;2023-04-15T11:23:49;3.20;;;3.00;;
6739;SDS011;3407;49.882;10.920;2023-04-15T11:28:45;3.40;;;3.00;;
6739;SDS011;3407;49.882;10.920;2023-04-15T11:33:57;3.37;;;3.07;;
6739;SDS011;3407;49.882;10.920;2023-04-15T11:38:54;3.20;;;2.90;;
6739;SDS011;3407;49.882;10.920;2023-04-15T11:43:51;3.23;;;3.03;;
6739;SDS011;3407;49.882;10.920;2023-04-15T11:48:47;3.90;;;3.07;;
6739;SDS011;3407;49.882;10.920;2023-04-15T11:53:43;3.10;;;2.80;;
6739;SDS011;3407;49.882;10.920;2023-04-15T11:58:40;3.67;;;3.30;;
6739;SDS011;3407;49.882;10.920;2023-04-15T12:03:41;2.97;;;2.70;;
6739;SDS011;3407;49.882;10.920;2023-04-15T12:08:48;3.47;;;3.17;;
6739;SDS011;3407;49.882;10.920;2023-04-15T12:13:47;3.47;;;3.07;;
6739;SDS011;3407;49.882;10.920;2023-04-15T12:18:55;3.00;;;2.80;;
6739;SDS011;3407;49.882;10.920;2023-04-15T12:23:52;2.87;;;2.67;;
6739;SDS011;3407;49.882;10.920;2023-04-15T12:28:52;2.53;;;2.33;;
6739;SDS011;3407;49.882;10.920;2023-04-15T12:33:55;3.00;;;2.80;;
6739;SDS011;3407;49.882;10.920;2023-04-15T12:38:52;3.13;;;2.93;;
6739;SDS011;3407;49.882;10.920;2023-04-15T12:43:47;2.10;;;2.00;;
6739;SDS011;3407;49.882;10.920;2023-04-15T12:48:43;2.43;;;2.23;;
6739;SDS011;3407;49.882;10.920;2023-04-15T12:53:38;5.10;;;2.30;;
6739;SDS011;3407;49.882;10.920;2023-04-15T12:58:34;2.00;;;1.90;;
6739;SDS011;3407;49.882;10.920;2023-04-15T13:03:30;2.37;;;2.17;;
6739;SDS011;3407;49.882;10.920;2023-04-15T13:08:25;2.40;;;2.20;;
6739;SDS011;3407;49.882;10.920;2023-04-15T13:13:21;1.90;;;1.80;;
6739;SDS011;3407;49.882;10.920;2023-04-15T13:18:16;1.90;;;1.80;;
6739;SDS011;3407;49.882;10.920;2023-04-15T13:23:12;3.33;;;2.63;;
6739;SDS011;3407;49.882;10.920;2023-04-15T13:28:09;2.47;;;2.30;;
6739;SDS011;3407;49.882;10.920;2023-04-15T13:33:06;2.73;;;2.53;;
6739;SDS011;3407;49.882;10.920;2023-04-15T13:38:01;4.37;;;3.60;;
6739;SDS011;3407;49.882;10.920;2023-04-15T13:42:57;6.40;;;4.17;;
6739;SDS011;3407;49.882;10.920;2023-04-15T13:47:54;14.97;;;6.40;;
6739;SDS011;3407;49.882;10.920;2023-04-15T13:52:51;4.47;;;3.40;;
6739;SDS011;3407;49.882;10.920;2023-04-15T13:57:46;8.60;;;4.50;;
6739;SDS011;3407;49.882;10.920;2023-04-15T14:02:42;14.57;;;6.87;;
6739;SDS011;3407;49.882;10.920;2023-04-15T14:07:37;4.93;;;3.50;;
6739;SDS011;3407;49.882;10.920;2023-04-15T14:12:33;8.23;;;4.53;;
6739;SDS011;3407;49.882;10.920;2023-04-15T14:17:29;6.07;;;3.43;;
6739;SDS011;3407;49.882;10.920;2023-04-15T14:22:25;7.37;;;3.57;;
6739;SDS011;3407;49.882;10.920;2023-04-15T14:27:20;2.80;;;2.53;;
6739;SDS011;3407;49.882;10.920;2023-04-15T14:32:16;9.53;;;5.90;;
6739;SDS011;3407;49.882;10.920;2023-04-15T14:37:12;9.77;;;5.43;;
6739;SDS011;3407;49.882;10.920;2023-04-15T14:42:07;4.10;;;3.13;;
6739;SDS011;3407;49.882;10.920;2023-04-15T14:47:03;3.93;;;2.90;;
6739;SDS011;3407;49.882;10.920;2023-04-15T14:51:59;3.97;;;2.67;;
6739;SDS011;3407;49.882;10.920;2023-04-15T14:56:55;2.83;;;2.50;;
6739;SDS011;3407;49.882;10.920;2023-04-15T15:01:51;2.53;;;2.30;;
6739;SDS011;3407;49.882;10.920;2023-04-15T15:06:47;2.30;;;2.00;;
6739;SDS011;3407;49.882;10.920;2023-04-15T15:11:43;2.00;;;1.90;;
6739;SDS011;3407;49.882;10.920;2023-04-15T15:16:39;2.43;;;2.23;;
6739;SDS011;3407;49.882;10.920;2023-04-15T15:21:34;2.53;;;2.30;;
6739;SDS011;3407;49.882;10.920;2023-04-15T15:26:31;2.43;;;2.23;;
6739;SDS011;3407;49.882;10.920;2023-04-15T15:31:27;2.53;;;2.37;;
6739;SDS011;3407;49.882;10.920;2023-04-15T15:36:22;2.10;;;2.00;;
6739;SDS011;3407;49.882;10.920;2023-04-15T15:41:18;2.50;;;2.30;;
6739;SDS011;3407;49.882;10.920;2023-04-15T15:46:13;2.50;;;2.33;;
6739;SDS011;3407;49.882;10.920;2023-04-15T15:51:09;2.20;;;2.00;;
6739;SDS011;3407;49.882;10.920;2023-04-15T15:56:05;2.50;;;2.30;;
6739;SDS011;3407;49.882;10.920;2023-04-15T16:01:00;2.10;;;2.00;;
6739;SDS011;3407;49.882;10.920;2023-04-15T16:05:56;2.13;;;2.03;;
6739;SDS011;3407;49.882;10.920;2023-04-15T16:10:51;2.60;;;2.40;;
6739;SDS011;3407;49.882;10.920;2023-04-15T16:15:47;2.10;;;2.00;;
6739;SDS011;3407;49.882;10.920;2023-04-15T16:20:46;3.77;;;3.30;;
6739;SDS011;3407;49.882;10.920;2023-04-15T16:25:42;2.40;;;2.20;;
6739;SDS011;3407;49.882;10.920;2023-04-15T16:30:38;2.87;;;2.63;;
6739;SDS011;3407;49.882;10.920;2023-04-15T16:35:35;3.03;;;2.57;;
6739;SDS011;3407;49.882;10.920;2023-04-15T16:40:30;2.10;;;2.00;;
6739;SDS011;3407;49.882;10.920;2023-04-15T16:45:26;4.77;;;4.27;;
6739;SDS011;3407;49.882;10.920;2023-04-15T16:50:22;2.87;;;2.57;;
6739;SDS011;3407;49.882;10.920;2023-04-15T16:55:18;2.40;;;2.23;;
6739;SDS011;3407;49.882;10.920;2023-04-15T17:00:14;2.50;;;2.30;;
6739;SDS011;3407;49.882;10.920;2023-04-15T17:05:09;2.13;;;2.03;;
6739;SDS011;3407;49.882;10.920;2023-04-15T17:10:05;2.93;;;2.67;;
6739;SDS011;3407;49.882;10.920;2023-04-15T17:15:01;2.90;;;2.70;;
6739;SDS011;3407;49.882;10.920;2023-04-15T17:19:57;3.53;;;3.00;;
6739;SDS011;3407;49.882;10.920;2023-04-15T17:24:52;2.57;;;2.20;;
6739;SDS011;3407;49.882;10.920;2023-04-15T17:29:48;3.23;;;2.97;;
6739;SDS011;3407;49.882;10.920;2023-04-15T17:34:43;2.10;;;2.00;;
6739;SDS011;3407;49.882;10.920;2023-04-15T17:39:39;3.07;;;2.17;;
6739;SDS011;3407;49.882;10.920;2023-04-15T17:44:34;3.30;;;3.00;;
6739;SDS011;3407;49.882;10.920;2023-04-15T17:49:30;4.23;;;3.90;;
6739;SDS011;3407;49.882;10.920;2023-04-15T17:54:29;6.17;;;3.27;;
6739;SDS011;3407;49.882;10.920;2023-04-15T17:59:24;2.60;;;2.40;;
6739;SDS011;3407;49.882;10.920;2023-04-15T18:04:20;2.90;;;2.20;;
6739;SDS011;3407;49.882;10.920;2023-04-15T18:09:15;2.63;;;2.43;;
6739;SDS011;3407;49.882;10.920;2023-04-15T18:14:11;3.20;;;2.90;;
6739;SDS011;3407;49.882;10.920;2023-04-15T18:19:07;5.10;;;2.83;;
6739;SDS011;3407;49.882;10.920;2023-04-15T18:24:03;3.80;;;2.83;;
6739;SDS011;3407;49.882;10.920;2023-04-15T18:28:59;5.87;;;4.30;;
6739;SDS011;3407;49.882;10.920;2023-04-15T18:33:55;3.37;;;3.00;;
6739;SDS011;3407;49.882;10.920;2023-04-15T18:38:50;4.07;;;3.33;;
6739;SDS011;3407;49.882;10.920;2023-04-15T18:43:46;3.80;;;2.90;;
6739;SDS011;3407;49.882;10.920;2023-04-15T18:48:42;6.27;;;3.87;;
6739;SDS011;3407;49.882;10.920;2023-04-15T18:53:37;4.70;;;4.30;;
6739;SDS011;3407;49.882;10.920;2023-04-15T18:58:33;3.37;;;3.03;;
6739;SDS011;3407;49.882;10.920;2023-04-15T19:03:28;3.57;;;3.27;;
6739;SDS011;3407;49.882;10.920;2023-04-15T19:08:24;4.53;;;4.13;;
6739;SDS011;3407;49.882;10.920;2023-04-15T19:13:20;5.57;;;4.50;;
6739;SDS011;3407;49.882;10.920;2023-04-15T19:18:16;3.90;;;3.60;;
6739;SDS011;3407;49.882;10.920;2023-04-15T19:23:12;3.90;;;3.60;;
6739;SDS011;3407;49.882;10.920;2023-04-15T19:28:07;4.20;;;3.80;;
6739;SDS011;3407;49.882;10.920;2023-04-15T19:33:03;4.40;;;4.00;;
6739;SDS011;3407;49.882;10.920;2023-04-15T19:37:58;5.03;;;3.80;;
6739;SDS011;3407;49.882;10.920;2023-04-15T19:42:54;5.27;;;4.87;;
6739;SDS011;3407;49.882;10.920;2023-04-15T19:47:49;8.83;;;7.93;;
6739;SDS011;3407;49.882;10.920;2023-04-15T19:52:46;8.27;;;7.57;;
6739;SDS011;3407;49.882;10.920;2023-04-15T19:57:41;5.50;;;3.80;;
6739;SDS011;3407;49.882;10.920;2023-04-15T20:02:37;6.80;;;4.83;;
6739;SDS011;3407;49.882;10.920;2023-04-15T20:07:32;4.33;;;3.93;;
6739;SDS011;3407;49.882;10.920;2023-04-15T20:12:28;3.77;;;3.47;;
6739;SDS011;3407;49.882;10.920;2023-04-15T20:17:23;4.23;;;3.80;;
6739;SDS011;3407;49.882;10.920;2023-04-15T20:22:20;4.97;;;4.10;;
6739;SDS011;3407;49.882;10.920;2023-04-15T20:27:16;6.10;;;4.57;;
6739;SDS011;3407;49.882;10.920;2023-04-15T20:32:11;5.47;;;4.97;;
6739;SDS011;3407;49.882;10.920;2023-04-15T20:37:07;5.40;;;4.90;;
6739;SDS011;3407;49.882;10.920;2023-04-15T20:42:02;7.03;;;4.90;;
6739;SDS011;3407;49.882;10.920;2023-04-15T20:46:58;6.20;;;5.47;;
6739;SDS011;3407;49.882;10.920;2023-04-15T20:51:53;4.57;;;4.17;;
6739;SDS011;3407;49.882;10.920;2023-04-15T20:56:49;5.80;;;4.83;;
6739;SDS011;3407;49.882;10.920;2023-04-15T21:01:44;5.07;;;4.57;;
6739;SDS011;3407;49.882;10.920;2023-04-15T21:06:40;5.87;;;4.83;;
6739;SDS011;3407;49.882;10.920;2023-04-15T21:11:36;6.53;;;5.40;;
6739;SDS011;3407;49.882;10.920;2023-04-15T21:16:31;5.53;;;5.03;;
6739;SDS011;3407;49.882;10.920;2023-04-15T21:21:27;5.47;;;4.97;;
6739;SDS011;3407;49.882;10.920;2023-04-15T21:26:23;8.33;;;5.43;;
6739;SDS011;3407;49.882;10.920;2023-04-15T21:31:19;7.30;;;5.80;;
6739;SDS011;3407;49.882;10.920;2023-04-15T21:36:15;7.80;;;5.80;;
6739;SDS011;3407;49.882;10.920;2023-04-15T21:41:11;8.27;;;6.23;;
6739;SDS011;3407;49.882;10.920;2023-04-15T21:46:07;6.60;;;5.63;;
6739;SDS011;3407;49.882;10.920;2023-04-15T21:51:02;5.77;;;4.80;;
6739;SDS011;3407;49.882;10.920;2023-04-15T21:55:58;5.93;;;5.30;;
6739;SDS011;3407;49.882;10.920;2023-04-15T22:00:54;6.63;;;5.63;;
6739;SDS011;3407;49.882;10.920;2023-04-15T22:05:54;7.13;;;6.00;;
6739;SDS011;3407;49.882;10.920;2023-04-15T22:10:49;6.83;;;5.63;;
6739;SDS011;3407;49.882;10.920;2023-04-15T22:15:45;9.23;;;6.03;;
6739;SDS011;3407;49.882;10.920;2023-04-15T22:20:40;7.40;;;5.50;;
6739;SDS011;3407;49.882;10.920;2023-04-15T22:25:36;6.20;;;4.83;;
6739;SDS011;3407;49.882;10.920;2023-04-15T22:30:32;6.00;;;5.10;;
6739;SDS011;3407;49.882;10.920;2023-04-15T22:35:31;5.20;;;4.63;;
6739;SDS011;3407;49.882;10.920;2023-04-15T22:40:28;6.30;;;5.27;;
6739;SDS011;3407;49.882;10.920;2023-04-15T22:45:24;5.93;;;5.33;;
6739;SDS011;3407;49.882;10.920;2023-04-15T22:50:20;6.30;;;5.33;;
6739;SDS011;3407;49.882;10.920;2023-04-15T22:55:15;5.33;;;4.80;;
6739;SDS011;3407;49.882;10.920;2023-04-15T23:00:11;7.00;;;5.60;;
6739;SDS011;3407;49.882;10.920;2023-04-15T23:05:07;5.10;;;4.47;;
6739;SDS011;3407;49.882;10.920;2023-04-15T23:10:03;5.37;;;4.87;;
6739;SDS011;3407;49.882;10.920;2023-04-15T23:14:59;5.60;;;5.00;;
6739;SDS011;3407;49.882;10.920;2023-04-15T23:19:54;6.47;;;4.70;;
6739;SDS011;3407;49.882;10.920;2023-04-15T23:24:50;7.83;;;4.80;;
6739;SDS011;3407;49.882;10.920;2023-04-15T23:29:45;5.90;;;5.30;;
6739;SDS011;3407;49.882;10.920;2023-04-15T23:34:41;6.13;;;5.40;;
6739;SDS011;3407;49.882;10.920;2023-04-15T23:39:36;6.80;;;5.30;;
6739;SDS011;3407;49.882;10.920;2023-04-15T23:44:32;9.20;;;5.33;;
6739;SDS011;3407;49.882;10.920;2023-04-15T23:49:27;6.17;;;5.40;;
6739;SDS011;3407;49.882;10.920;2023-04-15T23:54:23;7.67;;;5.37;;
6739;SDS011;3407;49.882;10.920;2023-04-15T23:59:18;7.40;;;6.13;;
